createdAt,value
2023-04-20T00:02:05.344Z,93.07
2023-04-20T00:05:09.501Z,93.08
2023-04-20T00:08:12.199Z,93.55
2023-04-20T00:11:15.032Z,93.65
2023-04-20T00:14:17.816Z,92.97
2023-04-20T00:17:20.686Z,92.97
2023-04-20T00:20:23.813Z,92.91
2023-04-20T00:23:26.742Z,92.63
2023-04-20T00:26:29.566Z,93.27
2023-04-20T00:29:34.371Z,92.90
2023-04-20T00:32:37.046Z,93.77
2023-04-20T00:35:39.806Z,93.77
2023-04-20T00:38:42.617Z,93.96
2023-04-20T00:41:45.346Z,94.46
2023-04-20T00:44:48.122Z,94.61
2023-04-20T00:47:51.928Z,94.58
2023-04-20T00:50:54.908Z,95.13
2023-04-20T00:53:57.924Z,95.20
2023-04-20T00:57:02.797Z,94.59
2023-04-20T01:00:07.756Z,94.59
2023-04-20T01:03:11.323Z,94.58
2023-04-20T01:06:15.056Z,95.45
2023-04-20T01:09:18.000Z,95.44
2023-04-20T01:12:20.930Z,95.37
2023-04-20T01:15:23.632Z,95.42
2023-04-20T01:18:27.300Z,95.42
2023-04-20T01:21:30.003Z,95.46
2023-04-20T01:24:35.302Z,95.54
2023-04-20T01:27:38.078Z,95.33
2023-04-20T01:30:40.832Z,95.27
2023-04-20T01:33:43.654Z,94.59
2023-04-20T01:36:46.299Z,95.68
2023-04-20T01:39:49.117Z,96.17
2023-04-20T01:42:52.035Z,96.36
2023-04-20T01:45:54.723Z,96.59
2023-04-20T01:48:57.344Z,96.12
2023-04-20T01:52:00.003Z,96.44
2023-04-20T01:55:02.616Z,96.46
2023-04-20T01:58:06.011Z,96.42
2023-04-20T02:01:09.485Z,96.20
2023-04-20T02:04:12.514Z,95.98
2023-04-20T02:07:16.391Z,96.07
2023-04-20T02:10:19.387Z,95.81
2023-04-20T02:13:22.381Z,95.41
2023-04-20T02:16:25.212Z,95.44
2023-04-20T02:19:27.983Z,95.59
2023-04-20T02:22:35.131Z,95.40
2023-04-20T02:25:37.631Z,95.72
2023-04-20T02:28:40.526Z,95.52
2023-04-20T02:31:43.346Z,95.48
2023-04-20T02:34:46.498Z,95.12
2023-04-20T02:37:49.110Z,95.34
2023-04-20T02:40:51.720Z,95.11
2023-04-20T02:43:55.207Z,95.37
2023-04-20T02:46:58.012Z,95.43
2023-04-20T02:50:01.724Z,95.52
2023-04-20T02:53:06.584Z,95.81
2023-04-20T02:56:12.172Z,95.61
2023-04-20T02:59:19.686Z,95.79
2023-04-20T03:02:34.878Z,95.23
2023-04-20T03:05:38.251Z,95.85
2023-04-20T03:08:41.395Z,95.67
2023-04-20T03:12:07.392Z,95.62
2023-04-20T03:15:39.471Z,95.36
2023-04-20T03:18:57.816Z,95.93
2023-04-20T03:22:00.626Z,96.11
2023-04-20T03:25:03.364Z,96.28
2023-04-20T03:28:28.963Z,97.08
2023-04-20T03:31:31.798Z,96.73
2023-04-20T03:34:35.044Z,96.67
2023-04-20T03:37:38.427Z,96.63
2023-04-20T03:40:42.290Z,96.45
2023-04-20T03:43:45.214Z,96.41
2023-04-20T03:46:51.420Z,96.66
2023-04-20T03:49:54.336Z,96.81
2023-04-20T03:52:57.109Z,97.03
2023-04-20T03:55:59.957Z,97.07
2023-04-20T03:59:03.145Z,97.06
2023-04-20T04:02:06.337Z,96.85
2023-04-20T04:05:09.615Z,96.44
2023-04-20T04:08:12.680Z,96.36
2023-04-20T04:11:15.708Z,96.12
2023-04-20T04:14:18.546Z,96.07
2023-04-20T04:17:22.272Z,96.41
2023-04-20T04:20:25.262Z,96.44
2023-04-20T04:23:28.814Z,96.43
2023-04-20T04:26:44.725Z,95.95
2023-04-20T04:29:50.506Z,95.94
2023-04-20T04:32:56.329Z,95.97
2023-04-20T04:35:59.266Z,95.00
2023-04-20T04:39:02.507Z,95.10
2023-04-20T04:42:06.266Z,95.09
2023-04-20T04:45:16.862Z,94.46
2023-04-20T04:48:20.147Z,94.33
2023-04-20T04:51:23.004Z,93.99
2023-04-20T04:54:25.874Z,93.55
2023-04-20T04:57:28.713Z,93.12
2023-04-20T05:00:31.796Z,92.92
2023-04-20T05:03:34.789Z,92.42
2023-04-20T05:06:37.599Z,91.76
2023-04-20T05:09:40.527Z,91.28
2023-04-20T05:12:43.370Z,91.30
2023-04-20T05:15:46.142Z,90.21
2023-04-20T05:18:48.748Z,89.83
2023-04-20T05:21:51.602Z,89.70
2023-04-20T05:24:54.373Z,89.25
2023-04-20T05:27:57.076Z,89.39
2023-04-20T05:30:59.715Z,89.20
2023-04-20T05:34:03.252Z,88.96
2023-04-20T05:37:06.668Z,88.42
2023-04-20T05:40:09.919Z,87.83
2023-04-20T05:43:12.646Z,88.51
2023-04-20T05:46:15.428Z,88.31
2023-04-20T05:49:18.448Z,88.44
2023-04-20T05:52:21.385Z,88.20
2023-04-20T05:55:24.134Z,87.76
2023-04-20T05:58:27.559Z,87.08
2023-04-20T06:01:30.373Z,86.33
2023-04-20T06:04:33.386Z,85.32
2023-04-20T06:07:37.009Z,82.89
2023-04-20T06:10:39.779Z,81.88
2023-04-20T06:13:42.406Z,81.01
2023-04-20T06:16:45.306Z,79.85
2023-04-20T06:19:48.222Z,78.70
2023-04-20T06:22:51.203Z,77.34
2023-04-20T06:25:53.940Z,76.39
2023-04-20T06:28:56.773Z,75.48
2023-04-20T06:31:59.581Z,75.73
2023-04-20T06:35:02.309Z,75.17
2023-04-20T06:38:05.090Z,73.69
2023-04-20T06:41:07.820Z,73.55
2023-04-20T06:44:10.776Z,74.18
2023-04-20T06:47:13.537Z,73.51
2023-04-20T06:50:16.518Z,73.16
2023-04-20T06:53:19.444Z,72.65
2023-04-20T06:56:22.362Z,72.84
2023-04-20T06:59:25.221Z,73.33
2023-04-20T07:02:28.360Z,71.77
2023-04-20T07:05:31.191Z,70.65
2023-04-20T07:08:34.348Z,71.54
2023-04-20T07:11:37.056Z,70.38
2023-04-20T07:14:39.796Z,69.82
2023-04-20T07:17:42.608Z,69.20
2023-04-20T07:20:45.348Z,69.78
2023-04-20T07:23:48.604Z,67.65
2023-04-20T07:26:51.912Z,67.76
2023-04-20T07:29:54.827Z,67.67
2023-04-20T07:32:57.814Z,67.92
2023-04-20T07:36:00.542Z,67.53
2023-04-20T07:39:03.488Z,67.35
2023-04-20T07:42:06.134Z,66.55
2023-04-20T07:45:10.623Z,65.27
2023-04-20T07:48:13.587Z,66.36
2023-04-20T07:51:16.319Z,65.79
2023-04-20T07:54:19.305Z,66.37
2023-04-20T07:57:22.409Z,64.28
2023-04-20T08:00:25.446Z,63.81
2023-04-20T08:03:29.376Z,63.13
2023-04-20T08:06:32.284Z,64.34
2023-04-20T08:09:34.980Z,63.73
2023-04-20T08:12:37.762Z,61.19
2023-04-20T08:15:40.476Z,62.72
2023-04-20T08:18:43.322Z,61.82
2023-04-20T08:21:46.083Z,60.57
2023-04-20T08:24:48.784Z,60.88
2023-04-20T08:27:51.447Z,60.60
2023-04-20T08:30:54.113Z,59.85
2023-04-20T08:33:56.928Z,61.10
2023-04-20T08:36:59.694Z,58.66
2023-04-20T08:40:02.393Z,59.50
2023-04-20T08:43:05.005Z,58.34
2023-04-20T08:46:07.924Z,59.59
2023-04-20T08:49:13.185Z,58.26
2023-04-20T08:52:16.080Z,56.74
2023-04-20T08:55:19.504Z,57.63
2023-04-20T08:58:22.660Z,55.45
2023-04-20T09:01:35.263Z,55.54
2023-04-20T09:04:40.209Z,54.91
2023-04-20T09:07:53.548Z,54.41
2023-04-20T09:10:56.464Z,53.37
2023-04-20T09:14:02.341Z,53.37
2023-04-20T09:17:05.532Z,53.37
2023-04-20T09:20:08.918Z,54.16
2023-04-20T09:23:16.648Z,53.60
2023-04-20T09:26:19.702Z,53.31
2023-04-20T09:29:24.430Z,54.80
2023-04-20T09:32:31.186Z,54.90
2023-04-20T09:35:35.131Z,54.76
2023-04-20T09:38:38.162Z,54.65
2023-04-20T09:41:41.818Z,53.60
2023-04-20T09:44:45.008Z,53.72
2023-04-20T09:47:50.110Z,52.82
2023-04-20T09:50:53.124Z,52.33
2023-04-20T09:54:00.378Z,50.76
2023-04-20T09:57:03.791Z,51.52
2023-04-20T10:00:08.283Z,52.95
2023-04-20T10:03:13.056Z,51.04
2023-04-20T10:06:35.338Z,51.83
2023-04-20T10:09:38.154Z,51.71
2023-04-20T10:12:48.285Z,50.39
2023-04-20T10:15:51.156Z,49.98
2023-04-20T10:19:01.252Z,49.08
2023-04-20T10:22:04.550Z,47.60
2023-04-20T10:25:19.888Z,49.06
2023-04-20T10:28:22.718Z,50.70
2023-04-20T10:31:36.463Z,48.34
2023-04-20T10:34:39.778Z,49.80
2023-04-20T10:37:51.135Z,50.47
2023-04-20T10:40:53.968Z,49.26
2023-04-20T10:44:07.931Z,49.28
2023-04-20T10:47:11.623Z,47.96
2023-04-20T10:50:15.978Z,49.74
2023-04-20T10:53:23.063Z,47.00
2023-04-20T10:56:27.114Z,47.48
2023-04-20T10:59:29.834Z,48.45
2023-04-20T11:02:33.024Z,47.04
2023-04-20T11:05:36.136Z,44.84
2023-04-20T11:08:42.261Z,46.24
2023-04-20T11:11:45.073Z,45.63
2023-04-20T11:14:53.666Z,45.68
2023-04-20T11:17:57.004Z,44.59
2023-04-20T11:20:59.976Z,44.74
2023-04-20T11:24:03.394Z,44.25
2023-04-20T11:27:06.114Z,44.16
2023-04-20T11:30:10.187Z,44.25
2023-04-20T11:33:14.321Z,45.84
2023-04-20T11:36:24.624Z,44.47
2023-04-20T11:39:28.764Z,46.40
2023-04-20T11:42:31.569Z,45.46
2023-04-20T11:45:36.171Z,44.88
2023-04-20T11:48:39.725Z,45.09
2023-04-20T11:51:43.648Z,44.24
2023-04-20T11:54:46.821Z,45.31
2023-04-20T11:57:50.490Z,43.13
2023-04-20T12:00:53.263Z,44.37
2023-04-20T12:03:56.457Z,44.28
2023-04-20T12:06:59.843Z,43.33
2023-04-20T12:10:03.242Z,42.90
2023-04-20T12:13:06.697Z,41.48
2023-04-20T12:16:09.660Z,42.35
2023-04-20T12:19:12.808Z,42.42
2023-04-20T12:22:15.787Z,42.48
2023-04-20T12:25:18.662Z,42.34
2023-04-20T12:28:21.635Z,41.34
2023-04-20T12:31:26.660Z,40.95
2023-04-20T12:34:30.751Z,42.94
2023-04-20T12:37:33.618Z,41.89
2023-04-20T12:40:36.437Z,42.30
2023-04-20T12:43:39.238Z,44.26
2023-04-20T12:46:42.744Z,42.94
2023-04-20T12:49:45.583Z,42.61
2023-04-20T12:52:48.441Z,43.13
2023-04-20T12:55:57.877Z,43.09
2023-04-20T12:59:04.057Z,41.68
2023-04-20T13:02:07.044Z,42.76
2023-04-20T13:05:10.586Z,41.93
2023-04-20T13:08:13.240Z,41.28
2023-04-20T13:11:17.738Z,43.60
2023-04-20T13:14:21.086Z,43.15
2023-04-20T13:17:24.462Z,43.34
2023-04-20T13:20:29.753Z,43.14
2023-04-20T13:23:32.688Z,43.14
2023-04-20T13:26:36.859Z,41.44
2023-04-20T13:29:40.546Z,42.69
2023-04-20T13:32:43.305Z,41.28
2023-04-20T13:35:46.654Z,39.27
2023-04-20T13:38:49.878Z,38.78
2023-04-20T13:41:52.726Z,40.20
2023-04-20T13:44:55.757Z,42.43
2023-04-20T13:47:58.685Z,43.48
2023-04-20T13:51:02.034Z,43.64
2023-04-20T13:54:05.033Z,43.34
2023-04-20T13:57:07.971Z,44.04
2023-04-20T14:00:11.154Z,44.73
2023-04-20T14:03:15.854Z,43.89
2023-04-20T14:06:19.148Z,43.42
2023-04-20T14:09:22.685Z,43.58
2023-04-20T14:12:27.242Z,44.71
2023-04-20T14:15:30.541Z,44.32
2023-04-20T14:18:33.249Z,43.75
2023-04-20T14:21:36.396Z,44.85
2023-04-20T14:24:39.283Z,44.38
2023-04-20T14:27:42.045Z,43.62
2023-04-20T14:30:46.379Z,43.48
2023-04-20T14:33:49.302Z,44.96
2023-04-20T14:36:52.213Z,44.92
2023-04-20T14:39:54.955Z,44.95
2023-04-20T14:42:58.353Z,44.42
2023-04-20T14:46:01.318Z,45.41
2023-04-20T14:49:04.345Z,46.98
2023-04-20T14:52:07.465Z,47.18
2023-04-20T14:55:10.496Z,46.16
2023-04-20T14:58:13.377Z,46.35
2023-04-20T15:01:16.431Z,45.43
2023-04-20T15:04:19.678Z,45.02
2023-04-20T15:07:22.724Z,43.91
2023-04-20T15:10:25.796Z,44.33
2023-04-20T15:13:28.484Z,45.32
2023-04-20T15:16:33.007Z,44.44
2023-04-20T15:19:36.433Z,44.40
2023-04-20T15:22:39.535Z,44.35
2023-04-20T15:25:42.569Z,44.34
2023-04-20T15:28:45.628Z,44.39
2023-04-20T15:31:48.536Z,44.18
2023-04-20T15:34:51.850Z,44.45
2023-04-20T15:37:57.452Z,43.59
2023-04-20T15:41:03.520Z,43.61
2023-04-20T15:44:14.385Z,42.80
2023-04-20T15:47:25.789Z,43.13
2023-04-20T15:50:38.849Z,42.94
2023-04-20T15:53:51.873Z,44.11
2023-04-20T15:56:57.769Z,43.77
2023-04-20T16:00:01.605Z,44.21
2023-04-20T16:03:07.889Z,43.84
2023-04-20T16:06:13.525Z,44.69
2023-04-20T16:09:20.795Z,44.05
2023-04-20T16:12:39.834Z,44.31
2023-04-20T16:15:52.800Z,44.72
2023-04-20T16:19:12.549Z,44.47
2023-04-20T16:22:50.978Z,45.71
2023-04-20T16:26:00.710Z,45.31
2023-04-20T16:29:14.470Z,45.43
2023-04-20T16:32:17.625Z,46.89
2023-04-20T16:35:27.178Z,45.87
2023-04-20T16:38:39.649Z,45.71
2023-04-20T16:41:53.560Z,45.66
2023-04-20T16:45:05.079Z,45.58
2023-04-20T16:48:11.089Z,46.51
2023-04-20T16:51:27.600Z,46.05
2023-04-20T16:54:34.601Z,46.17
2023-04-20T16:57:48.947Z,47.19
2023-04-20T17:00:59.841Z,48.98
2023-04-20T17:04:09.764Z,52.81
2023-04-20T17:07:16.381Z,56.99
2023-04-20T17:10:21.509Z,60.20
2023-04-20T17:13:25.363Z,58.48
2023-04-20T17:16:28.449Z,58.65
2023-04-20T17:19:31.913Z,59.04
2023-04-20T17:22:35.988Z,59.28
2023-04-20T17:25:39.119Z,59.18
2023-04-20T17:28:42.085Z,58.16
2023-04-20T17:31:46.012Z,57.56
2023-04-20T17:34:51.772Z,58.49
2023-04-20T17:37:54.983Z,58.49
2023-04-20T17:40:58.002Z,60.75
2023-04-20T17:44:01.097Z,61.70
2023-04-20T17:47:04.283Z,61.31
2023-04-20T17:50:08.213Z,62.23
2023-04-20T17:53:11.008Z,63.83
2023-04-20T17:56:13.917Z,62.32
2023-04-20T17:59:18.255Z,62.30
2023-04-20T18:02:21.390Z,61.40
2023-04-20T18:05:24.571Z,61.15
2023-04-20T18:08:27.586Z,61.84
2023-04-20T18:11:31.132Z,62.29
2023-04-20T18:14:34.291Z,62.69
2023-04-20T18:17:37.712Z,63.60
2023-04-20T18:20:41.092Z,63.08
2023-04-20T18:23:43.880Z,63.90
2023-04-20T18:26:46.910Z,63.02
2023-04-20T18:29:50.593Z,64.20
2023-04-20T18:32:54.202Z,63.31
2023-04-20T18:35:57.050Z,64.86
2023-04-20T18:38:59.861Z,63.21
2023-04-20T18:42:02.999Z,62.51
2023-04-20T18:45:07.308Z,63.79
2023-04-20T18:48:10.517Z,64.48
2023-04-20T18:51:13.678Z,64.79
2023-04-20T18:54:16.963Z,64.36
2023-04-20T18:57:24.296Z,64.35
2023-04-20T19:00:27.141Z,63.59
2023-04-20T19:03:30.186Z,64.28
2023-04-20T19:06:33.242Z,64.22
2023-04-20T19:09:36.192Z,64.38
2023-04-20T19:12:42.474Z,64.11
2023-04-20T19:15:46.160Z,63.76
2023-04-20T19:18:49.738Z,65.01
2023-04-20T19:21:54.265Z,66.00
2023-04-20T19:24:57.103Z,66.44
2023-04-20T19:28:01.507Z,66.50
2023-04-20T19:31:04.561Z,66.07
2023-04-20T19:34:08.443Z,66.79
2023-04-20T19:37:11.912Z,66.54
2023-04-20T19:40:14.988Z,66.24
2023-04-20T19:43:18.065Z,65.57
2023-04-20T19:46:21.904Z,65.16
2023-04-20T19:49:24.826Z,64.99
2023-04-20T19:52:27.697Z,65.84
2023-04-20T19:55:30.547Z,65.14
2023-04-20T19:58:33.386Z,64.73
2023-04-20T20:01:36.317Z,65.81
2023-04-20T20:04:39.656Z,65.14
2023-04-20T20:07:42.801Z,64.93
2023-04-20T20:10:45.657Z,65.16
2023-04-20T20:13:48.878Z,65.43
2023-04-20T20:16:51.802Z,67.35
2023-04-20T20:19:55.918Z,66.07
2023-04-20T20:23:02.050Z,66.08
2023-04-20T20:26:04.841Z,66.76
2023-04-20T20:29:07.710Z,66.21
2023-04-20T20:32:10.746Z,66.36
2023-04-20T20:35:13.597Z,67.11
2023-04-20T20:38:18.603Z,66.41
2023-04-20T20:41:21.431Z,67.29
2023-04-20T20:44:25.824Z,67.85
2023-04-20T20:47:31.111Z,68.17
2023-04-20T20:50:33.891Z,68.00
2023-04-20T20:53:36.648Z,68.77
2023-04-20T20:56:39.412Z,69.18
2023-04-20T20:59:42.088Z,69.20
2023-04-20T21:02:45.113Z,69.09
2023-04-20T21:05:47.849Z,68.31
2023-04-20T21:08:50.906Z,68.15
2023-04-20T21:11:53.837Z,67.89
2023-04-20T21:14:57.456Z,68.12
2023-04-20T21:18:00.296Z,68.29
2023-04-20T21:21:03.345Z,67.55
2023-04-20T21:24:06.237Z,66.95
2023-04-20T21:27:09.103Z,66.82
2023-04-20T21:30:12.468Z,67.18
2023-04-20T21:33:15.724Z,67.32
2023-04-20T21:36:18.528Z,67.42
2023-04-20T21:39:21.510Z,67.51
2023-04-20T21:42:24.219Z,67.69
2023-04-20T21:45:27.171Z,68.06
2023-04-20T21:48:29.908Z,68.70
2023-04-20T21:51:33.302Z,68.98
2023-04-20T21:54:36.296Z,68.30
2023-04-20T21:57:39.015Z,68.00
2023-04-20T22:00:43.861Z,67.38
2023-04-20T22:03:47.909Z,67.31
2023-04-20T22:06:50.995Z,67.05
2023-04-20T22:09:53.681Z,67.52
2023-04-20T22:12:56.612Z,67.41
2023-04-20T22:15:59.411Z,68.56
2023-04-20T22:19:04.876Z,69.50
2023-04-20T22:22:07.665Z,69.60
2023-04-20T22:25:10.598Z,69.17
2023-04-20T22:28:13.789Z,69.72
2023-04-20T22:31:16.806Z,69.88
2023-04-20T22:34:19.562Z,68.56
2023-04-20T22:37:22.302Z,67.83
2023-04-20T22:40:25.274Z,68.51
2023-04-20T22:43:28.082Z,69.81
2023-04-20T22:46:30.743Z,69.86
2023-04-20T22:49:33.634Z,70.08
2023-04-20T22:52:38.742Z,69.56
2023-04-20T22:55:42.113Z,68.62
2023-04-20T22:58:44.838Z,69.18
2023-04-20T23:01:47.515Z,69.95
2023-04-20T23:04:50.717Z,69.43
2023-04-20T23:07:54.293Z,69.76
2023-04-20T23:10:57.151Z,70.14
2023-04-20T23:13:59.869Z,70.01
2023-04-20T23:17:03.262Z,69.09
2023-04-20T23:20:14.269Z,68.71
2023-04-20T23:23:17.096Z,69.72
2023-04-20T23:26:19.907Z,70.86
2023-04-20T23:29:22.615Z,70.91
2023-04-20T23:32:26.232Z,70.54
2023-04-20T23:35:29.253Z,69.92
2023-04-20T23:38:32.012Z,70.01
2023-04-20T23:41:34.783Z,70.20
2023-04-20T23:44:37.650Z,69.81
2023-04-20T23:47:40.368Z,69.63
2023-04-20T23:50:43.092Z,69.58
2023-04-20T23:53:46.003Z,70.13
2023-04-20T23:56:48.886Z,70.55
2023-04-20T23:59:55.327Z,70.67
